createdAt,value
2022-08-07T00:02:46.877Z,4.28
2022-08-07T00:05:54.117Z,4.10
2022-08-07T00:09:00.109Z,4.10
2022-08-07T00:12:22.321Z,3.92
2022-08-07T00:15:38.455Z,4.18
2022-08-07T00:18:53.055Z,3.65
2022-08-07T00:22:02.365Z,3.97
2022-08-07T00:25:15.731Z,3.90
2022-08-07T00:28:23.032Z,3.67
2022-08-07T00:31:41.512Z,3.83
2022-08-07T00:34:50.708Z,3.45
2022-08-07T00:37:56.626Z,3.95
2022-08-07T00:41:04.299Z,3.03
2022-08-07T00:44:15.502Z,2.83
2022-08-07T00:48:08.187Z,2.80
2022-08-07T00:50:51.288Z,3.10
2022-08-07T00:53:57.728Z,2.67
2022-08-07T00:57:03.386Z,2.35
2022-08-07T01:00:10.126Z,2.17
2022-08-07T01:03:17.386Z,2.22
2022-08-07T01:06:24.270Z,2.53
2022-08-07T01:10:04.756Z,2.22
2022-08-07T01:12:55.994Z,2.75
2022-08-07T01:16:08.416Z,3.03
2022-08-07T01:19:18.870Z,2.38
2022-08-07T01:22:29.420Z,2.10
2022-08-07T01:25:54.328Z,2.38
2022-08-07T01:29:03.315Z,2.42
2022-08-07T01:32:12.559Z,3.10
2022-08-07T01:35:24.395Z,2.05
2022-08-07T01:38:32.697Z,2.70
2022-08-07T01:42:01.676Z,2.50
2022-08-07T01:45:18.375Z,2.72
2022-08-07T01:48:35.005Z,3.22
2022-08-07T01:52:03.435Z,2.80
2022-08-07T01:55:22.348Z,3.30
2022-08-07T01:58:37.551Z,3.40
2022-08-07T02:02:02.741Z,3.53
2022-08-07T02:05:42.811Z,3.30
2022-08-07T02:08:54.319Z,3.75
2022-08-07T02:12:17.958Z,4.47
2022-08-07T02:15:43.895Z,4.20
2022-08-07T02:18:51.178Z,4.75
2022-08-07T02:22:00.008Z,5.13
2022-08-07T02:25:13.802Z,4.75
2022-08-07T02:28:29.943Z,5.32
2022-08-07T02:31:41.186Z,5.22
2022-08-07T02:34:51.272Z,5.10
2022-08-07T02:38:04.324Z,5.20
2022-08-07T02:41:13.944Z,4.07
2022-08-07T02:44:34.732Z,4.28
2022-08-07T02:47:44.989Z,3.70
2022-08-07T02:50:57.738Z,4.60
2022-08-07T02:54:09.981Z,4.25
2022-08-07T02:57:22.227Z,3.92
2022-08-07T03:00:30.589Z,4.85
2022-08-07T03:03:49.093Z,5.18
2022-08-07T03:07:10.407Z,4.90
2022-08-07T03:10:19.950Z,5.18
2022-08-07T03:13:30.374Z,4.80
2022-08-07T03:16:47.700Z,4.47
2022-08-07T03:19:55.549Z,4.60
2022-08-07T03:23:06.423Z,5.13
2022-08-07T03:26:30.282Z,5.25
2022-08-07T03:29:46.139Z,5.75
2022-08-07T03:33:00.888Z,4.90
2022-08-07T03:36:15.081Z,4.57
2022-08-07T03:39:59.421Z,4.80
2022-08-07T03:42:52.457Z,5.93
2022-08-07T03:46:00.651Z,4.55
2022-08-07T03:49:10.183Z,5.03
2022-08-07T03:52:27.468Z,5.13
2022-08-07T03:55:58.328Z,5.35
2022-08-07T03:59:09.858Z,4.88
2022-08-07T04:02:20.957Z,4.93
2022-08-07T04:05:39.198Z,4.88
2022-08-07T04:08:52.338Z,4.05
2022-08-07T04:12:23.691Z,4.35
2022-08-07T04:15:27.668Z,3.70
2022-08-07T04:18:59.146Z,3.67
2022-08-07T04:22:14.488Z,3.97
2022-08-07T04:25:24.242Z,4.00
2022-08-07T04:28:36.796Z,3.45
2022-08-07T04:32:03.374Z,4.43
2022-08-07T04:35:11.377Z,4.10
2022-08-07T04:38:19.504Z,4.97
2022-08-07T04:41:27.282Z,6.05
2022-08-07T04:44:35.730Z,6.30
2022-08-07T04:48:04.679Z,6.32
2022-08-07T04:51:35.745Z,6.40
2022-08-07T04:55:02.237Z,6.45
2022-08-07T05:02:20.705Z,5.05
2022-08-07T05:05:52.888Z,4.88
2022-08-07T05:09:43.001Z,5.25
2022-08-07T05:13:09.880Z,5.07
2022-08-07T05:16:31.746Z,4.78
2022-08-07T05:19:48.851Z,3.70
2022-08-07T05:22:59.920Z,3.33
2022-08-07T05:26:18.725Z,4.13
2022-08-07T05:29:52.234Z,3.72
2022-08-07T05:33:04.114Z,4.55
2022-08-07T05:36:12.044Z,3.63
2022-08-07T05:40:05.360Z,3.50
2022-08-07T05:42:56.013Z,2.97
2022-08-07T05:46:04.885Z,3.90
2022-08-07T05:49:13.117Z,4.15
2022-08-07T05:52:32.496Z,6.40
2022-08-07T05:56:03.851Z,4.40
2022-08-07T05:59:15.533Z,3.63
2022-08-07T06:02:29.197Z,3.38
2022-08-07T06:05:37.227Z,3.50
2022-08-07T06:11:58.908Z,4.93
2022-08-07T06:15:07.505Z,4.38
2022-08-07T06:18:14.355Z,4.50
2022-08-07T06:23:02.416Z,3.17
2022-08-07T06:26:22.224Z,3.60
2022-08-07T06:29:38.870Z,4.60
2022-08-07T06:32:46.735Z,3.75
2022-08-07T06:36:12.428Z,3.80
2022-08-07T06:40:15.611Z,4.70
2022-08-07T06:42:53.114Z,4.50
2022-08-07T06:46:20.412Z,4.47
2022-08-07T06:49:51.117Z,4.63
2022-08-07T06:53:04.079Z,5.03
2022-08-07T06:56:15.971Z,4.13
2022-08-07T07:00:13.580Z,3.65
2022-08-07T07:03:00.989Z,4.10
2022-08-07T07:06:11.211Z,4.25
2022-08-07T07:09:26.078Z,5.63
2022-08-07T07:12:56.189Z,4.80
2022-08-07T07:16:06.888Z,5.40
2022-08-07T07:19:56.579Z,5.90
2022-08-07T07:24:06.273Z,5.30
2022-08-07T07:26:32.927Z,5.68
2022-08-07T07:29:57.172Z,4.80
2022-08-07T07:36:24.828Z,5.75
2022-08-07T07:39:45.772Z,5.65
2022-08-07T07:43:15.107Z,5.65
2022-08-07T07:46:36.868Z,5.35
2022-08-07T07:50:33.756Z,4.72
2022-08-07T07:53:25.763Z,4.88
2022-08-07T07:56:33.865Z,5.20
2022-08-07T07:59:52.030Z,4.65
2022-08-07T08:03:16.529Z,5.25
2022-08-07T08:06:26.362Z,4.90
2022-08-07T08:09:32.431Z,5.40
2022-08-07T08:13:02.850Z,5.20
2022-08-07T08:16:12.756Z,4.20
2022-08-07T08:20:22.332Z,4.05
2022-08-07T08:23:14.701Z,5.53
2022-08-07T08:26:39.608Z,4.22
2022-08-07T08:29:54.607Z,4.03
2022-08-07T08:33:05.859Z,4.03
2022-08-07T08:36:25.645Z,4.07
2022-08-07T08:39:39.339Z,3.53
2022-08-07T08:43:16.755Z,4.13
2022-08-07T08:46:34.668Z,4.05
2022-08-07T08:50:34.723Z,3.65
2022-08-07T08:53:58.308Z,3.33
2022-08-07T08:57:14.545Z,4.18
2022-08-07T09:00:24.519Z,3.55
2022-08-07T09:03:52.702Z,3.58
2022-08-07T09:07:33.582Z,3.72
2022-08-07T09:11:14.104Z,2.58
2022-08-07T09:16:22.942Z,3.20
2022-08-07T09:18:36.657Z,2.30
2022-08-07T09:22:09.965Z,2.40
2022-08-07T09:25:21.792Z,2.97
2022-08-07T09:30:01.071Z,3.08
2022-08-07T09:32:51.213Z,3.38
2022-08-07T09:36:20.995Z,2.78
2022-08-07T09:39:53.769Z,3.13
2022-08-07T09:44:03.611Z,2.85
2022-08-07T09:47:57.800Z,2.80
2022-08-07T09:50:59.522Z,2.60
2022-08-07T09:54:11.612Z,3.03
2022-08-07T09:57:54.659Z,2.67
2022-08-07T10:01:52.052Z,3.13
2022-08-07T10:05:59.419Z,2.97
2022-08-07T10:09:23.629Z,3.10
2022-08-07T10:12:53.543Z,3.05
2022-08-07T10:16:21.182Z,3.15
2022-08-07T10:20:00.490Z,3.65
2022-08-07T10:24:05.251Z,3.72
2022-08-07T10:27:45.779Z,3.47
2022-08-07T10:31:31.476Z,3.35
2022-08-07T10:34:58.384Z,3.83
2022-08-07T10:38:42.061Z,2.75
2022-08-07T10:42:21.062Z,2.50
2022-08-07T10:45:57.764Z,2.65
2022-08-07T10:49:49.520Z,3.00
2022-08-07T10:53:21.624Z,2.25
2022-08-07T10:56:47.026Z,2.60
2022-08-07T11:00:36.381Z,2.83
2022-08-07T11:03:54.974Z,2.15
2022-08-07T11:08:00.285Z,1.98
2022-08-07T11:11:24.621Z,2.00
2022-08-07T11:15:00.277Z,2.03
2022-08-07T11:18:37.289Z,2.30
2022-08-07T11:21:54.916Z,2.03
2022-08-07T11:25:31.234Z,2.20
2022-08-07T11:28:53.426Z,2.70
2022-08-07T11:32:31.063Z,1.92
2022-08-07T11:36:30.627Z,2.38
2022-08-07T11:40:00.102Z,2.45
2022-08-07T11:43:18.856Z,1.88
2022-08-07T11:46:45.033Z,2.70
2022-08-07T11:50:31.790Z,2.58
2022-08-07T11:54:01.708Z,2.10
2022-08-07T11:57:19.664Z,2.60
2022-08-07T12:01:05.278Z,2.47
2022-08-07T12:04:35.887Z,1.90
2022-08-07T12:07:53.696Z,2.20
2022-08-07T12:11:32.585Z,1.98
2022-08-07T12:14:55.625Z,2.20
2022-08-07T12:18:16.144Z,1.98
2022-08-07T12:22:36.171Z,2.13
2022-08-07T12:26:05.351Z,2.60
2022-08-07T12:29:51.773Z,2.30
2022-08-07T12:33:14.595Z,1.90
2022-08-07T12:36:32.902Z,2.13
2022-08-07T12:39:51.103Z,1.88
2022-08-07T12:43:01.131Z,1.60
2022-08-07T12:49:53.033Z,2.15
2022-08-07T12:53:18.604Z,1.67
2022-08-07T12:56:36.885Z,2.20
2022-08-07T12:59:55.462Z,1.90
2022-08-07T13:03:59.315Z,2.30
2022-08-07T13:08:12.712Z,1.92
2022-08-07T13:11:03.064Z,1.75
2022-08-07T13:14:29.146Z,1.55
2022-08-07T13:17:46.849Z,2.15
2022-08-07T13:20:59.870Z,1.88
2022-08-07T13:24:31.044Z,1.98
2022-08-07T13:28:10.597Z,1.63
2022-08-07T13:31:54.920Z,1.80
2022-08-07T13:35:08.413Z,2.10
2022-08-07T13:38:20.454Z,2.38
2022-08-07T13:41:47.555Z,2.08
2022-08-07T13:45:20.592Z,1.67
2022-08-07T13:48:27.834Z,1.75
2022-08-07T13:52:19.028Z,1.80
2022-08-07T13:55:26.502Z,1.83
2022-08-07T13:58:58.496Z,1.73
2022-08-07T14:02:10.386Z,1.67
2022-08-07T14:05:22.479Z,1.95
2022-08-07T14:08:29.905Z,1.83
2022-08-07T14:12:01.133Z,1.95
2022-08-07T14:15:32.015Z,2.10
2022-08-07T14:18:49.962Z,2.30
2022-08-07T14:22:10.750Z,2.53
2022-08-07T14:25:25.033Z,2.10
2022-08-07T14:28:57.520Z,2.00
2022-08-07T14:32:09.829Z,2.10
2022-08-07T14:35:44.956Z,1.75
2022-08-07T14:38:53.164Z,2.30
2022-08-07T14:42:19.758Z,2.00
2022-08-07T14:45:46.037Z,2.10
2022-08-07T14:48:58.048Z,2.00
2022-08-07T14:52:10.492Z,1.80
2022-08-07T14:55:17.642Z,2.15
2022-08-07T14:58:27.965Z,2.00
2022-08-07T15:01:50.970Z,2.03
2022-08-07T15:04:57.923Z,1.80
2022-08-07T15:08:12.616Z,2.35
2022-08-07T15:14:58.177Z,1.83
2022-08-07T15:18:14.250Z,1.90
2022-08-07T15:21:44.948Z,1.88
2022-08-07T15:28:45.018Z,1.60
2022-08-07T15:32:02.815Z,1.75
2022-08-07T15:36:00.689Z,2.10
2022-08-07T15:38:51.345Z,1.55
2022-08-07T15:42:43.316Z,2.05
2022-08-07T15:45:55.923Z,2.33
2022-08-07T15:52:36.991Z,1.85
2022-08-07T15:56:02.355Z,2.03
2022-08-07T15:59:17.403Z,2.00
2022-08-07T16:02:27.008Z,2.17
2022-08-07T16:05:36.124Z,1.98
2022-08-07T16:08:45.587Z,2.40
2022-08-07T16:12:05.587Z,3.45
2022-08-07T16:15:57.738Z,1.70
2022-08-07T16:19:43.176Z,2.00
2022-08-07T16:23:53.496Z,2.10
2022-08-07T16:27:17.967Z,2.15
2022-08-07T16:30:30.903Z,2.10
2022-08-07T16:34:02.896Z,2.58
2022-08-07T16:38:06.092Z,2.17
2022-08-07T16:41:53.948Z,2.10
2022-08-07T16:46:34.669Z,2.33
2022-08-07T16:53:09.858Z,2.28
2022-08-07T16:56:49.782Z,2.63
2022-08-07T17:00:03.234Z,2.38
2022-08-07T17:03:17.081Z,2.85
2022-08-07T17:07:03.473Z,2.40
2022-08-07T17:10:30.393Z,2.60
2022-08-07T17:14:18.013Z,2.13
2022-08-07T17:17:45.973Z,2.97
2022-08-07T17:20:54.791Z,2.15
2022-08-07T17:24:32.036Z,2.30
2022-08-07T17:28:20.168Z,2.65
2022-08-07T17:31:44.067Z,2.47
2022-08-07T17:35:32.934Z,2.55
2022-08-07T17:42:01.979Z,2.40
2022-08-07T17:45:18.033Z,2.72
2022-08-07T17:48:34.494Z,2.33
2022-08-07T17:52:19.446Z,2.15
2022-08-07T17:56:01.271Z,2.80
2022-08-07T17:59:21.559Z,3.05
2022-08-07T18:02:56.379Z,2.92
2022-08-07T18:06:10.365Z,3.42
2022-08-07T18:09:48.374Z,3.25
2022-08-07T18:13:09.799Z,3.20
2022-08-07T18:16:33.181Z,3.65
2022-08-07T18:21:08.229Z,3.97
2022-08-07T18:23:42.301Z,4.28
2022-08-07T18:27:25.246Z,3.50
2022-08-07T18:31:12.252Z,4.43
2022-08-07T18:35:01.389Z,4.20
2022-08-07T18:38:56.297Z,3.33
2022-08-07T18:41:53.064Z,3.35
2022-08-07T18:45:40.218Z,3.78
2022-08-07T18:50:35.236Z,3.65
2022-08-07T18:52:53.198Z,3.83
2022-08-07T18:56:35.499Z,4.55
2022-08-07T19:00:34.199Z,5.25
2022-08-07T19:03:40.578Z,4.75
2022-08-07T19:06:56.807Z,4.72
2022-08-07T19:10:10.953Z,4.80
2022-08-07T19:13:43.894Z,5.78
2022-08-07T19:17:05.760Z,4.68
2022-08-07T19:20:30.246Z,5.40
2022-08-07T19:23:59.111Z,4.53
2022-08-07T19:28:30.086Z,4.65
2022-08-07T19:31:05.751Z,5.07
2022-08-07T19:34:06.117Z,4.50
2022-08-07T19:37:17.587Z,4.47
2022-08-07T19:40:31.570Z,5.33
2022-08-07T19:43:51.912Z,4.40
2022-08-07T19:47:10.885Z,4.70
2022-08-07T19:50:42.999Z,4.35
2022-08-07T19:54:44.409Z,4.57
2022-08-07T19:58:00.143Z,4.63
2022-08-07T20:00:55.480Z,4.20
2022-08-07T20:04:01.894Z,4.80
2022-08-07T20:07:10.641Z,4.43
2022-08-07T20:10:38.221Z,4.63
2022-08-07T20:13:57.489Z,4.65
2022-08-07T20:17:06.712Z,5.00
2022-08-07T20:20:15.417Z,4.97
2022-08-07T20:23:41.768Z,4.95
2022-08-07T20:26:52.368Z,5.88
2022-08-07T20:30:05.960Z,5.20
2022-08-07T20:33:24.373Z,6.05
2022-08-07T20:36:51.746Z,5.93
2022-08-07T20:40:03.805Z,6.50
2022-08-07T20:43:19.344Z,7.13
2022-08-07T20:46:34.583Z,6.10
2022-08-07T20:49:57.966Z,6.47
2022-08-07T20:53:16.112Z,6.10
2022-08-07T20:56:41.761Z,6.75
2022-08-07T21:00:06.529Z,6.90
2022-08-07T21:03:25.525Z,6.78
2022-08-07T21:06:34.053Z,6.65
2022-08-07T21:09:53.104Z,6.60
2022-08-07T21:13:12.075Z,7.13
2022-08-07T21:16:20.656Z,8.00
2022-08-07T21:19:51.647Z,8.05
2022-08-07T21:23:07.611Z,7.45
2022-08-07T21:26:42.847Z,8.75
2022-08-07T21:29:54.463Z,7.80
2022-08-07T21:33:29.359Z,7.75
2022-08-07T21:37:04.703Z,8.02
2022-08-07T21:40:35.667Z,8.13
2022-08-07T21:47:12.443Z,7.80
2022-08-07T21:50:28.200Z,7.20
2022-08-07T21:53:46.500Z,8.13
2022-08-07T21:57:01.549Z,8.00
2022-08-07T22:00:23.110Z,8.68
2022-08-07T22:04:02.507Z,7.63
2022-08-07T22:07:16.462Z,8.25
2022-08-07T22:10:26.167Z,8.90
2022-08-07T22:13:51.865Z,8.63
2022-08-07T22:17:05.933Z,8.32
2022-08-07T22:20:34.291Z,9.07
2022-08-07T22:23:58.114Z,8.55
2022-08-07T22:27:21.146Z,8.50
2022-08-07T22:31:09.874Z,9.00
2022-08-07T22:34:31.701Z,8.98
2022-08-07T22:38:01.947Z,9.05
2022-08-07T22:41:29.162Z,8.15
2022-08-07T22:44:59.094Z,8.38
2022-08-07T22:48:31.361Z,9.10
2022-08-07T22:55:29.783Z,8.95
2022-08-07T22:59:11.286Z,8.15
2022-08-07T23:02:35.224Z,7.93
2022-08-07T23:06:15.366Z,7.97
2022-08-07T23:10:03.847Z,7.93
2022-08-07T23:14:08.798Z,8.18
2022-08-07T23:17:35.931Z,7.18
2022-08-07T23:21:04.853Z,6.53
2022-08-07T23:24:35.118Z,8.93
2022-08-07T23:28:21.051Z,9.30
2022-08-07T23:32:49.492Z,8.90
2022-08-07T23:34:56.295Z,9.18
2022-08-07T23:38:19.267Z,9.23
2022-08-07T23:42:04.441Z,9.45
2022-08-07T23:46:01.357Z,9.63
2022-08-07T23:49:15.401Z,9.18
2022-08-07T23:53:16.846Z,9.77
2022-08-07T23:56:54.093Z,8.98
